sensor_id;sensor_type;location;lat;lon;timestamp;temperature;humidity
4548;DHT22;2286;51.570;7.090;2023-04-23T00:00:40;10.20;99.90
4548;DHT22;2286;51.570;7.090;2023-04-23T00:03:08;10.10;99.90
4548;DHT22;2286;51.570;7.090;2023-04-23T00:05:37;10.10;99.90
4548;DHT22;2286;51.570;7.090;2023-04-23T00:08:07;10.10;99.90
4548;DHT22;2286;51.570;7.090;2023-04-23T00:10:34;10.10;99.90
4548;DHT22;2286;51.570;7.090;2023-04-23T00:13:03;10.10;99.90
4548;DHT22;2286;51.570;7.090;2023-04-23T00:15:30;10.00;99.90
4548;DHT22;2286;51.570;7.090;2023-04-23T00:17:57;10.00;99.90
4548;DHT22;2286;51.570;7.090;2023-04-23T00:20:24;10.00;99.90
4548;DHT22;2286;51.570;7.090;2023-04-23T00:22:51;10.00;99.90
4548;DHT22;2286;51.570;7.090;2023-04-23T00:25:17;10.00;99.90
4548;DHT22;2286;51.570;7.090;2023-04-23T00:27:44;10.00;99.90
4548;DHT22;2286;51.570;7.090;2023-04-23T00:30:13;10.00;99.90
4548;DHT22;2286;51.570;7.090;2023-04-23T00:32:41;10.00;99.90
4548;DHT22;2286;51.570;7.090;2023-04-23T00:35:09;10.00;99.90
4548;DHT22;2286;51.570;7.090;2023-04-23T00:37:36;10.00;99.90
4548;DHT22;2286;51.570;7.090;2023-04-23T00:40:03;10.00;99.90
4548;DHT22;2286;51.570;7.090;2023-04-23T00:42:30;9.90;99.90
4548;DHT22;2286;51.570;7.090;2023-04-23T00:44:57;10.00;99.90
4548;DHT22;2286;51.570;7.090;2023-04-23T00:47:28;9.90;99.90
4548;DHT22;2286;51.570;7.090;2023-04-23T00:49:55;9.90;99.90
4548;DHT22;2286;51.570;7.090;2023-04-23T00:52:22;9.90;99.90
4548;DHT22;2286;51.570;7.090;2023-04-23T00:54:49;9.90;99.90
4548;DHT22;2286;51.570;7.090;2023-04-23T00:57:16;9.90;99.90
4548;DHT22;2286;51.570;7.090;2023-04-23T00:59:42;9.90;99.90
4548;DHT22;2286;51.570;7.090;2023-04-23T01:02:10;9.90;99.90
4548;DHT22;2286;51.570;7.090;2023-04-23T01:04:40;9.90;99.90
4548;DHT22;2286;51.570;7.090;2023-04-23T01:07:09;9.90;99.90
4548;DHT22;2286;51.570;7.090;2023-04-23T01:09:35;9.80;99.90
4548;DHT22;2286;51.570;7.090;2023-04-23T01:12:04;9.80;99.90
4548;DHT22;2286;51.570;7.090;2023-04-23T01:14:32;9.80;99.90
4548;DHT22;2286;51.570;7.090;2023-04-23T01:16:58;9.80;99.90
4548;DHT22;2286;51.570;7.090;2023-04-23T01:19:26;9.80;99.90
4548;DHT22;2286;51.570;7.090;2023-04-23T01:21:55;9.80;99.90
4548;DHT22;2286;51.570;7.090;2023-04-23T01:24:27;9.90;99.90
4548;DHT22;2286;51.570;7.090;2023-04-23T01:26:54;9.90;99.90
4548;DHT22;2286;51.570;7.090;2023-04-23T01:29:23;9.90;99.90
4548;DHT22;2286;51.570;7.090;2023-04-23T01:31:50;9.90;99.90
4548;DHT22;2286;51.570;7.090;2023-04-23T01:34:19;9.80;99.90
4548;DHT22;2286;51.570;7.090;2023-04-23T01:36:46;9.80;99.90
4548;DHT22;2286;51.570;7.090;2023-04-23T01:39:14;9.80;99.90
4548;DHT22;2286;51.570;7.090;2023-04-23T01:41:42;9.80;99.90
4548;DHT22;2286;51.570;7.090;2023-04-23T01:44:09;9.80;99.90
4548;DHT22;2286;51.570;7.090;2023-04-23T01:46:36;9.70;99.90
4548;DHT22;2286;51.570;7.090;2023-04-23T01:49:03;9.70;99.90
4548;DHT22;2286;51.570;7.090;2023-04-23T01:51:30;9.70;99.90
4548;DHT22;2286;51.570;7.090;2023-04-23T01:53:57;9.70;99.90
4548;DHT22;2286;51.570;7.090;2023-04-23T01:56:25;9.70;99.90
4548;DHT22;2286;51.570;7.090;2023-04-23T01:58:53;9.60;99.90
4548;DHT22;2286;51.570;7.090;2023-04-23T02:01:20;9.50;99.90
4548;DHT22;2286;51.570;7.090;2023-04-23T02:03:48;9.50;99.90
4548;DHT22;2286;51.570;7.090;2023-04-23T02:06:15;9.40;99.90
4548;DHT22;2286;51.570;7.090;2023-04-23T02:08:42;9.30;99.90
4548;DHT22;2286;51.570;7.090;2023-04-23T02:11:09;9.30;99.90
4548;DHT22;2286;51.570;7.090;2023-04-23T02:13:36;9.20;99.90
4548;DHT22;2286;51.570;7.090;2023-04-23T02:16:05;9.10;99.90
4548;DHT22;2286;51.570;7.090;2023-04-23T02:18:32;9.10;99.90
4548;DHT22;2286;51.570;7.090;2023-04-23T02:20:58;9.00;99.90
4548;DHT22;2286;51.570;7.090;2023-04-23T02:23:26;9.00;99.90
4548;DHT22;2286;51.570;7.090;2023-04-23T02:25:53;9.00;99.90
4548;DHT22;2286;51.570;7.090;2023-04-23T02:28:20;8.90;99.90
4548;DHT22;2286;51.570;7.090;2023-04-23T02:30:46;8.70;99.90
4548;DHT22;2286;51.570;7.090;2023-04-23T02:33:15;8.60;99.90
4548;DHT22;2286;51.570;7.090;2023-04-23T02:35:42;8.60;99.90
4548;DHT22;2286;51.570;7.090;2023-04-23T02:38:09;8.50;99.90
4548;DHT22;2286;51.570;7.090;2023-04-23T02:40:36;8.50;99.90
4548;DHT22;2286;51.570;7.090;2023-04-23T02:43:02;8.40;99.90
4548;DHT22;2286;51.570;7.090;2023-04-23T02:45:29;8.30;99.90
4548;DHT22;2286;51.570;7.090;2023-04-23T02:47:56;8.30;99.90
4548;DHT22;2286;51.570;7.090;2023-04-23T02:50:24;8.30;99.90
4548;DHT22;2286;51.570;7.090;2023-04-23T02:52:51;8.30;99.90
4548;DHT22;2286;51.570;7.090;2023-04-23T02:55:24;8.30;99.90
4548;DHT22;2286;51.570;7.090;2023-04-23T02:57:56;8.30;99.90
4548;DHT22;2286;51.570;7.090;2023-04-23T03:00:23;8.40;99.90
4548;DHT22;2286;51.570;7.090;2023-04-23T03:02:50;8.30;99.90
4548;DHT22;2286;51.570;7.090;2023-04-23T03:05:17;8.30;99.90
4548;DHT22;2286;51.570;7.090;2023-04-23T03:07:46;8.20;99.90
4548;DHT22;2286;51.570;7.090;2023-04-23T03:10:13;8.10;99.90
4548;DHT22;2286;51.570;7.090;2023-04-23T03:12:40;8.00;99.90
4548;DHT22;2286;51.570;7.090;2023-04-23T03:15:09;8.00;99.90
4548;DHT22;2286;51.570;7.090;2023-04-23T03:17:36;7.90;99.90
4548;DHT22;2286;51.570;7.090;2023-04-23T03:20:03;7.90;99.90
4548;DHT22;2286;51.570;7.090;2023-04-23T03:22:31;7.90;99.90
4548;DHT22;2286;51.570;7.090;2023-04-23T03:25:00;7.80;99.90
4548;DHT22;2286;51.570;7.090;2023-04-23T03:27:27;7.80;99.90
4548;DHT22;2286;51.570;7.090;2023-04-23T03:29:54;7.80;99.90
4548;DHT22;2286;51.570;7.090;2023-04-23T03:32:21;7.90;99.90
4548;DHT22;2286;51.570;7.090;2023-04-23T03:34:48;7.90;99.90
4548;DHT22;2286;51.570;7.090;2023-04-23T03:37:15;7.90;99.90
4548;DHT22;2286;51.570;7.090;2023-04-23T03:39:42;8.00;99.90
4548;DHT22;2286;51.570;7.090;2023-04-23T03:42:10;8.10;99.90
4548;DHT22;2286;51.570;7.090;2023-04-23T03:44:37;8.10;99.90
4548;DHT22;2286;51.570;7.090;2023-04-23T03:47:04;8.20;99.90
4548;DHT22;2286;51.570;7.090;2023-04-23T03:49:31;8.30;99.90
4548;DHT22;2286;51.570;7.090;2023-04-23T03:51:58;8.30;99.90
4548;DHT22;2286;51.570;7.090;2023-04-23T03:54:25;8.30;99.90
4548;DHT22;2286;51.570;7.090;2023-04-23T03:56:52;8.30;99.90
4548;DHT22;2286;51.570;7.090;2023-04-23T03:59:21;8.20;99.90
4548;DHT22;2286;51.570;7.090;2023-04-23T04:01:48;8.20;99.90
4548;DHT22;2286;51.570;7.090;2023-04-23T04:04:15;8.10;99.90
4548;DHT22;2286;51.570;7.090;2023-04-23T04:06:42;8.10;99.90
4548;DHT22;2286;51.570;7.090;2023-04-23T04:09:09;8.10;99.90
4548;DHT22;2286;51.570;7.090;2023-04-23T04:11:36;8.10;99.90
4548;DHT22;2286;51.570;7.090;2023-04-23T04:14:03;8.10;99.90
4548;DHT22;2286;51.570;7.090;2023-04-23T04:16:32;8.00;99.90
4548;DHT22;2286;51.570;7.090;2023-04-23T04:18:59;7.90;99.90
4548;DHT22;2286;51.570;7.090;2023-04-23T04:21:26;7.90;99.90
4548;DHT22;2286;51.570;7.090;2023-04-23T04:23:55;7.80;99.90
4548;DHT22;2286;51.570;7.090;2023-04-23T04:26:22;7.80;99.90
4548;DHT22;2286;51.570;7.090;2023-04-23T04:28:49;7.70;99.90
4548;DHT22;2286;51.570;7.090;2023-04-23T04:31:17;7.70;99.90
4548;DHT22;2286;51.570;7.090;2023-04-23T04:33:47;7.70;99.90
4548;DHT22;2286;51.570;7.090;2023-04-23T04:36:14;7.70;99.90
4548;DHT22;2286;51.570;7.090;2023-04-23T04:38:42;7.70;99.90
4548;DHT22;2286;51.570;7.090;2023-04-23T04:41:09;7.60;99.90
4548;DHT22;2286;51.570;7.090;2023-04-23T04:43:37;7.60;99.90
4548;DHT22;2286;51.570;7.090;2023-04-23T04:46:04;7.60;99.90
4548;DHT22;2286;51.570;7.090;2023-04-23T04:48:32;7.60;99.90
4548;DHT22;2286;51.570;7.090;2023-04-23T04:51:00;7.50;99.90
4548;DHT22;2286;51.570;7.090;2023-04-23T04:53:27;7.60;99.90
4548;DHT22;2286;51.570;7.090;2023-04-23T04:55:54;7.70;99.90
4548;DHT22;2286;51.570;7.090;2023-04-23T04:58:21;7.70;99.90
4548;DHT22;2286;51.570;7.090;2023-04-23T05:00:48;7.70;99.90
4548;DHT22;2286;51.570;7.090;2023-04-23T05:03:18;7.60;99.90
4548;DHT22;2286;51.570;7.090;2023-04-23T05:05:45;7.70;99.90
4548;DHT22;2286;51.570;7.090;2023-04-23T05:08:14;7.80;99.90
4548;DHT22;2286;51.570;7.090;2023-04-23T05:10:42;7.80;99.90
4548;DHT22;2286;51.570;7.090;2023-04-23T05:13:09;7.80;99.90
4548;DHT22;2286;51.570;7.090;2023-04-23T05:15:36;7.90;99.90
4548;DHT22;2286;51.570;7.090;2023-04-23T05:18:05;7.90;99.90
4548;DHT22;2286;51.570;7.090;2023-04-23T05:20:32;7.90;99.90
4548;DHT22;2286;51.570;7.090;2023-04-23T05:22:59;8.00;99.90
4548;DHT22;2286;51.570;7.090;2023-04-23T05:25:29;8.10;99.90
4548;DHT22;2286;51.570;7.090;2023-04-23T05:27:56;8.20;99.90
4548;DHT22;2286;51.570;7.090;2023-04-23T05:30:23;8.30;99.90
4548;DHT22;2286;51.570;7.090;2023-04-23T05:32:50;8.50;99.90
4548;DHT22;2286;51.570;7.090;2023-04-23T05:35:17;8.60;99.90
4548;DHT22;2286;51.570;7.090;2023-04-23T05:37:44;8.70;99.90
4548;DHT22;2286;51.570;7.090;2023-04-23T05:40:11;8.90;99.90
4548;DHT22;2286;51.570;7.090;2023-04-23T05:42:40;9.10;99.90
4548;DHT22;2286;51.570;7.090;2023-04-23T05:45:08;9.30;99.90
4548;DHT22;2286;51.570;7.090;2023-04-23T05:47:35;9.60;99.90
4548;DHT22;2286;51.570;7.090;2023-04-23T05:50:02;9.70;99.90
4548;DHT22;2286;51.570;7.090;2023-04-23T05:52:29;9.90;99.90
4548;DHT22;2286;51.570;7.090;2023-04-23T05:54:58;10.10;99.90
4548;DHT22;2286;51.570;7.090;2023-04-23T05:57:25;10.20;99.90
4548;DHT22;2286;51.570;7.090;2023-04-23T05:59:54;10.30;99.90
4548;DHT22;2286;51.570;7.090;2023-04-23T06:02:21;10.40;99.90
4548;DHT22;2286;51.570;7.090;2023-04-23T06:04:48;10.50;99.90
4548;DHT22;2286;51.570;7.090;2023-04-23T06:07:15;10.60;99.90
4548;DHT22;2286;51.570;7.090;2023-04-23T06:09:42;10.60;99.90
4548;DHT22;2286;51.570;7.090;2023-04-23T06:12:09;10.70;99.90
4548;DHT22;2286;51.570;7.090;2023-04-23T06:14:37;10.80;99.90
4548;DHT22;2286;51.570;7.090;2023-04-23T06:17:05;10.90;99.90
4548;DHT22;2286;51.570;7.090;2023-04-23T06:19:32;11.10;99.90
4548;DHT22;2286;51.570;7.090;2023-04-23T06:21:59;11.00;99.90
4548;DHT22;2286;51.570;7.090;2023-04-23T06:24:26;11.10;99.90
4548;DHT22;2286;51.570;7.090;2023-04-23T06:26:53;11.20;99.90
4548;DHT22;2286;51.570;7.090;2023-04-23T06:29:20;11.30;99.90
4548;DHT22;2286;51.570;7.090;2023-04-23T06:31:47;11.30;99.90
4548;DHT22;2286;51.570;7.090;2023-04-23T06:34:16;11.40;99.90
4548;DHT22;2286;51.570;7.090;2023-04-23T06:36:43;11.50;99.90
4548;DHT22;2286;51.570;7.090;2023-04-23T06:39:10;11.50;99.90
4548;DHT22;2286;51.570;7.090;2023-04-23T06:41:37;11.60;99.90
4548;DHT22;2286;51.570;7.090;2023-04-23T06:44:04;11.70;99.90
4548;DHT22;2286;51.570;7.090;2023-04-23T06:46:31;11.80;99.90
4548;DHT22;2286;51.570;7.090;2023-04-23T06:48:58;11.80;99.90
4548;DHT22;2286;51.570;7.090;2023-04-23T06:51:27;12.00;99.90
4548;DHT22;2286;51.570;7.090;2023-04-23T06:53:54;12.10;99.90
4548;DHT22;2286;51.570;7.090;2023-04-23T06:56:21;12.20;99.90
4548;DHT22;2286;51.570;7.090;2023-04-23T06:58:48;12.40;99.90
4548;DHT22;2286;51.570;7.090;2023-04-23T07:01:15;12.50;99.90
4548;DHT22;2286;51.570;7.090;2023-04-23T07:03:42;12.60;1.00
4548;DHT22;2286;51.570;7.090;2023-04-23T07:06:13;12.80;99.90
4548;DHT22;2286;51.570;7.090;2023-04-23T07:08:42;12.80;2.50
4548;DHT22;2286;51.570;7.090;2023-04-23T07:11:09;13.00;1.00
4548;DHT22;2286;51.570;7.090;2023-04-23T07:13:36;13.10;1.00
4548;DHT22;2286;51.570;7.090;2023-04-23T07:16:04;13.20;1.00
4548;DHT22;2286;51.570;7.090;2023-04-23T07:18:31;13.30;1.00
4548;DHT22;2286;51.570;7.090;2023-04-23T07:20:58;13.30;99.90
4548;DHT22;2286;51.570;7.090;2023-04-23T07:23:25;13.40;99.90
4548;DHT22;2286;51.570;7.090;2023-04-23T07:25:53;13.40;7.60
4548;DHT22;2286;51.570;7.090;2023-04-23T07:28:20;13.30;1.00
4548;DHT22;2286;51.570;7.090;2023-04-23T07:30:47;13.10;99.90
4548;DHT22;2286;51.570;7.090;2023-04-23T07:33:14;13.00;99.90
4548;DHT22;2286;51.570;7.090;2023-04-23T07:35:41;13.00;93.70
4548;DHT22;2286;51.570;7.090;2023-04-23T07:38:08;13.00;9.50
4548;DHT22;2286;51.570;7.090;2023-04-23T07:40:35;13.00;99.90
4548;DHT22;2286;51.570;7.090;2023-04-23T07:43:04;13.10;99.90
4548;DHT22;2286;51.570;7.090;2023-04-23T07:45:31;13.20;99.90
4548;DHT22;2286;51.570;7.090;2023-04-23T07:47:58;13.20;57.00
4548;DHT22;2286;51.570;7.090;2023-04-23T07:50:27;13.20;99.90
4548;DHT22;2286;51.570;7.090;2023-04-23T07:52:55;13.30;1.00
4548;DHT22;2286;51.570;7.090;2023-04-23T07:55:22;13.40;99.90
4548;DHT22;2286;51.570;7.090;2023-04-23T07:57:49;13.60;1.00
4548;DHT22;2286;51.570;7.090;2023-04-23T08:00:18;13.70;99.90
4548;DHT22;2286;51.570;7.090;2023-04-23T08:02:46;13.70;1.00
4548;DHT22;2286;51.570;7.090;2023-04-23T08:05:13;13.90;99.90
4548;DHT22;2286;51.570;7.090;2023-04-23T08:07:40;14.00;99.90
4548;DHT22;2286;51.570;7.090;2023-04-23T08:10:07;14.10;99.90
4548;DHT22;2286;51.570;7.090;2023-04-23T08:12:35;14.10;1.00
4548;DHT22;2286;51.570;7.090;2023-04-23T08:15:03;14.20;1.00
4548;DHT22;2286;51.570;7.090;2023-04-23T08:17:31;14.20;43.90
4548;DHT22;2286;51.570;7.090;2023-04-23T08:19:58;14.40;99.90
4548;DHT22;2286;51.570;7.090;2023-04-23T08:22:25;14.40;1.00
4548;DHT22;2286;51.570;7.090;2023-04-23T08:24:52;14.40;99.90
4548;DHT22;2286;51.570;7.090;2023-04-23T08:27:19;14.40;99.90
4548;DHT22;2286;51.570;7.090;2023-04-23T08:29:47;14.60;99.90
4548;DHT22;2286;51.570;7.090;2023-04-23T08:32:14;14.70;1.00
4548;DHT22;2286;51.570;7.090;2023-04-23T08:34:42;14.90;99.90
4548;DHT22;2286;51.570;7.090;2023-04-23T08:37:09;15.10;99.90
4548;DHT22;2286;51.570;7.090;2023-04-23T08:39:36;15.20;1.00
4548;DHT22;2286;51.570;7.090;2023-04-23T08:42:09;15.30;99.90
4548;DHT22;2286;51.570;7.090;2023-04-23T08:44:37;15.30;99.90
4548;DHT22;2286;51.570;7.090;2023-04-23T08:47:10;15.40;1.00
4548;DHT22;2286;51.570;7.090;2023-04-23T08:49:42;15.50;1.00
4548;DHT22;2286;51.570;7.090;2023-04-23T08:52:15;15.50;99.90
4548;DHT22;2286;51.570;7.090;2023-04-23T08:54:52;15.60;1.00
4548;DHT22;2286;51.570;7.090;2023-04-23T08:57:19;15.80;1.00
4548;DHT22;2286;51.570;7.090;2023-04-23T08:59:47;16.00;99.90
4548;DHT22;2286;51.570;7.090;2023-04-23T09:02:16;16.00;99.90
4548;DHT22;2286;51.570;7.090;2023-04-23T09:04:45;16.00;99.90
4548;DHT22;2286;51.570;7.090;2023-04-23T09:07:13;16.00;99.90
4548;DHT22;2286;51.570;7.090;2023-04-23T09:09:40;16.00;1.00
4548;DHT22;2286;51.570;7.090;2023-04-23T09:12:08;16.20;1.00
4548;DHT22;2286;51.570;7.090;2023-04-23T09:14:35;16.40;1.00
4548;DHT22;2286;51.570;7.090;2023-04-23T09:17:03;16.50;1.00
4548;DHT22;2286;51.570;7.090;2023-04-23T09:19:30;16.70;1.00
4548;DHT22;2286;51.570;7.090;2023-04-23T09:21:58;16.60;1.00
4548;DHT22;2286;51.570;7.090;2023-04-23T09:24:26;16.50;1.00
4548;DHT22;2286;51.570;7.090;2023-04-23T09:26:57;16.40;1.00
4548;DHT22;2286;51.570;7.090;2023-04-23T09:29:24;16.40;1.00
4548;DHT22;2286;51.570;7.090;2023-04-23T09:31:54;16.30;1.00
4548;DHT22;2286;51.570;7.090;2023-04-23T09:34:23;16.30;1.00
4548;DHT22;2286;51.570;7.090;2023-04-23T09:36:52;16.50;1.00
4548;DHT22;2286;51.570;7.090;2023-04-23T09:39:21;16.50;1.00
4548;DHT22;2286;51.570;7.090;2023-04-23T09:41:50;16.50;1.00
4548;DHT22;2286;51.570;7.090;2023-04-23T09:44:18;16.70;99.90
4548;DHT22;2286;51.570;7.090;2023-04-23T09:46:47;16.70;1.00
4548;DHT22;2286;51.570;7.090;2023-04-23T09:49:14;17.00;99.90
4548;DHT22;2286;51.570;7.090;2023-04-23T09:51:42;17.00;99.90
4548;DHT22;2286;51.570;7.090;2023-04-23T09:54:11;17.20;99.90
4548;DHT22;2286;51.570;7.090;2023-04-23T09:56:40;17.50;99.90
4548;DHT22;2286;51.570;7.090;2023-04-23T09:59:20;17.60;99.90
4548;DHT22;2286;51.570;7.090;2023-04-23T10:01:48;18.00;99.90
4548;DHT22;2286;51.570;7.090;2023-04-23T10:04:17;18.30;99.90
4548;DHT22;2286;51.570;7.090;2023-04-23T10:06:45;18.60;99.90
4548;DHT22;2286;51.570;7.090;2023-04-23T10:09:13;19.10;99.90
4548;DHT22;2286;51.570;7.090;2023-04-23T10:11:42;19.50;99.90
4548;DHT22;2286;51.570;7.090;2023-04-23T10:14:09;20.00;99.90
4548;DHT22;2286;51.570;7.090;2023-04-23T10:16:38;20.00;99.90
4548;DHT22;2286;51.570;7.090;2023-04-23T10:19:08;19.70;99.90
4548;DHT22;2286;51.570;7.090;2023-04-23T10:21:37;19.60;99.90
4548;DHT22;2286;51.570;7.090;2023-04-23T10:24:05;19.80;99.90
4548;DHT22;2286;51.570;7.090;2023-04-23T10:26:34;20.60;99.90
4548;DHT22;2286;51.570;7.090;2023-04-23T10:29:06;21.40;99.90
4548;DHT22;2286;51.570;7.090;2023-04-23T10:31:34;21.80;99.90
4548;DHT22;2286;51.570;7.090;2023-04-23T10:34:03;21.30;99.90
4548;DHT22;2286;51.570;7.090;2023-04-23T10:36:31;20.90;99.90
4548;DHT22;2286;51.570;7.090;2023-04-23T10:38:58;20.90;99.90
4548;DHT22;2286;51.570;7.090;2023-04-23T10:41:33;20.60;99.90
4548;DHT22;2286;51.570;7.090;2023-04-23T10:44:03;20.70;99.90
4548;DHT22;2286;51.570;7.090;2023-04-23T10:46:32;20.90;99.90
4548;DHT22;2286;51.570;7.090;2023-04-23T10:49:10;20.80;99.90
4548;DHT22;2286;51.570;7.090;2023-04-23T10:51:39;20.90;99.90
4548;DHT22;2286;51.570;7.090;2023-04-23T10:54:07;20.90;99.90
4548;DHT22;2286;51.570;7.090;2023-04-23T10:56:37;21.30;99.90
4548;DHT22;2286;51.570;7.090;2023-04-23T10:59:06;22.50;99.90
4548;DHT22;2286;51.570;7.090;2023-04-23T11:01:34;22.60;99.90
4548;DHT22;2286;51.570;7.090;2023-04-23T11:04:19;21.90;99.90
4548;DHT22;2286;51.570;7.090;2023-04-23T11:06:51;22.00;99.90
4548;DHT22;2286;51.570;7.090;2023-04-23T11:09:38;22.30;99.90
4548;DHT22;2286;51.570;7.090;2023-04-23T11:12:07;21.80;99.90
4548;DHT22;2286;51.570;7.090;2023-04-23T11:14:51;21.70;99.90
4548;DHT22;2286;51.570;7.090;2023-04-23T11:17:22;21.40;99.90
4548;DHT22;2286;51.570;7.090;2023-04-23T11:20:06;20.70;99.90
4548;DHT22;2286;51.570;7.090;2023-04-23T11:22:35;20.60;99.90
4548;DHT22;2286;51.570;7.090;2023-04-23T11:25:04;20.80;99.90
4548;DHT22;2286;51.570;7.090;2023-04-23T11:27:37;20.80;99.90
4548;DHT22;2286;51.570;7.090;2023-04-23T11:30:10;20.60;99.90
4548;DHT22;2286;51.570;7.090;2023-04-23T11:32:39;20.10;99.90
4548;DHT22;2286;51.570;7.090;2023-04-23T11:35:07;19.40;99.90
4548;DHT22;2286;51.570;7.090;2023-04-23T11:37:38;19.10;99.90
4548;DHT22;2286;51.570;7.090;2023-04-23T11:40:08;18.50;99.90
4548;DHT22;2286;51.570;7.090;2023-04-23T11:42:40;17.70;99.90
4548;DHT22;2286;51.570;7.090;2023-04-23T11:45:16;16.80;99.90
4548;DHT22;2286;51.570;7.090;2023-04-23T11:47:44;16.10;99.90
4548;DHT22;2286;51.570;7.090;2023-04-23T11:50:16;15.80;1.00
4548;DHT22;2286;51.570;7.090;2023-04-23T11:52:43;15.40;99.90
4548;DHT22;2286;51.570;7.090;2023-04-23T11:55:11;14.90;1.00
4548;DHT22;2286;51.570;7.090;2023-04-23T11:57:41;14.60;1.00
4548;DHT22;2286;51.570;7.090;2023-04-23T12:00:15;14.40;1.00
4548;DHT22;2286;51.570;7.090;2023-04-23T12:02:50;14.00;99.90
4548;DHT22;2286;51.570;7.090;2023-04-23T12:05:19;13.90;99.90
4548;DHT22;2286;51.570;7.090;2023-04-23T12:07:48;13.70;1.00
4548;DHT22;2286;51.570;7.090;2023-04-23T12:10:17;13.80;1.00
4548;DHT22;2286;51.570;7.090;2023-04-23T12:12:48;14.10;63.70
4548;DHT22;2286;51.570;7.090;2023-04-23T12:15:17;14.60;1.00
4548;DHT22;2286;51.570;7.090;2023-04-23T12:17:48;15.40;1.00
4548;DHT22;2286;51.570;7.090;2023-04-23T12:20:17;16.30;1.00
4548;DHT22;2286;51.570;7.090;2023-04-23T12:22:44;17.10;99.90
4548;DHT22;2286;51.570;7.090;2023-04-23T12:25:12;17.90;1.00
4548;DHT22;2286;51.570;7.090;2023-04-23T12:27:39;18.70;99.90
4548;DHT22;2286;51.570;7.090;2023-04-23T12:30:08;19.30;1.00
4548;DHT22;2286;51.570;7.090;2023-04-23T12:32:37;19.90;99.90
4548;DHT22;2286;51.570;7.090;2023-04-23T12:35:05;20.50;1.00
4548;DHT22;2286;51.570;7.090;2023-04-23T12:37:35;21.00;1.00
4548;DHT22;2286;51.570;7.090;2023-04-23T12:40:03;21.50;99.90
4548;DHT22;2286;51.570;7.090;2023-04-23T12:42:32;21.40;99.90
4548;DHT22;2286;51.570;7.090;2023-04-23T12:45:05;20.70;99.90
4548;DHT22;2286;51.570;7.090;2023-04-23T12:47:33;20.50;99.90
4548;DHT22;2286;51.570;7.090;2023-04-23T12:50:01;20.20;99.90
4548;DHT22;2286;51.570;7.090;2023-04-23T12:52:30;20.30;99.90
4548;DHT22;2286;51.570;7.090;2023-04-23T12:54:57;20.00;99.90
4548;DHT22;2286;51.570;7.090;2023-04-23T12:57:26;20.10;99.90
4548;DHT22;2286;51.570;7.090;2023-04-23T12:59:53;20.00;99.90
4548;DHT22;2286;51.570;7.090;2023-04-23T13:02:23;20.30;99.90
4548;DHT22;2286;51.570;7.090;2023-04-23T13:04:50;21.60;99.90
4548;DHT22;2286;51.570;7.090;2023-04-23T13:07:20;22.70;99.90
4548;DHT22;2286;51.570;7.090;2023-04-23T13:09:47;24.00;99.90
4548;DHT22;2286;51.570;7.090;2023-04-23T13:12:14;24.90;99.90
4548;DHT22;2286;51.570;7.090;2023-04-23T13:14:41;25.70;99.90
4548;DHT22;2286;51.570;7.090;2023-04-23T13:17:08;26.50;99.90
4548;DHT22;2286;51.570;7.090;2023-04-23T13:19:35;27.60;99.90
4548;DHT22;2286;51.570;7.090;2023-04-23T13:22:04;27.10;99.90
4548;DHT22;2286;51.570;7.090;2023-04-23T13:24:33;26.70;99.90
4548;DHT22;2286;51.570;7.090;2023-04-23T13:27:00;27.10;99.90
4548;DHT22;2286;51.570;7.090;2023-04-23T13:29:27;26.90;99.90
4548;DHT22;2286;51.570;7.090;2023-04-23T13:31:55;27.50;99.90
4548;DHT22;2286;51.570;7.090;2023-04-23T13:34:22;26.90;99.90
4548;DHT22;2286;51.570;7.090;2023-04-23T13:36:50;26.00;99.90
4548;DHT22;2286;51.570;7.090;2023-04-23T13:39:17;25.20;99.90
4548;DHT22;2286;51.570;7.090;2023-04-23T13:41:46;24.80;99.90
4548;DHT22;2286;51.570;7.090;2023-04-23T13:44:13;24.70;99.90
4548;DHT22;2286;51.570;7.090;2023-04-23T13:46:40;25.60;99.90
4548;DHT22;2286;51.570;7.090;2023-04-23T13:49:07;27.30;99.90
4548;DHT22;2286;51.570;7.090;2023-04-23T13:51:34;28.60;99.90
4548;DHT22;2286;51.570;7.090;2023-04-23T13:54:02;29.60;99.90
4548;DHT22;2286;51.570;7.090;2023-04-23T13:56:29;28.30;99.90
4548;DHT22;2286;51.570;7.090;2023-04-23T13:58:58;26.60;99.90
4548;DHT22;2286;51.570;7.090;2023-04-23T14:01:27;25.70;99.90
4548;DHT22;2286;51.570;7.090;2023-04-23T14:03:55;25.70;99.90
4548;DHT22;2286;51.570;7.090;2023-04-23T14:06:22;25.30;99.90
4548;DHT22;2286;51.570;7.090;2023-04-23T14:08:49;24.50;99.90
4548;DHT22;2286;51.570;7.090;2023-04-23T14:11:16;23.70;99.90
4548;DHT22;2286;51.570;7.090;2023-04-23T14:13:43;23.50;99.90
4548;DHT22;2286;51.570;7.090;2023-04-23T14:16:12;23.50;99.90
4548;DHT22;2286;51.570;7.090;2023-04-23T14:18:39;23.60;99.90
4548;DHT22;2286;51.570;7.090;2023-04-23T14:21:06;23.20;99.90
4548;DHT22;2286;51.570;7.090;2023-04-23T14:23:44;22.80;99.90
4548;DHT22;2286;51.570;7.090;2023-04-23T14:26:32;22.60;99.90
4548;DHT22;2286;51.570;7.090;2023-04-23T14:29:02;22.20;99.90
4548;DHT22;2286;51.570;7.090;2023-04-23T14:31:31;22.70;99.90
4548;DHT22;2286;51.570;7.090;2023-04-23T14:33:58;23.00;99.90
4548;DHT22;2286;51.570;7.090;2023-04-23T14:36:25;22.80;99.90
4548;DHT22;2286;51.570;7.090;2023-04-23T14:38:52;22.50;99.90
4548;DHT22;2286;51.570;7.090;2023-04-23T14:41:19;22.50;99.90
4548;DHT22;2286;51.570;7.090;2023-04-23T14:43:46;22.50;99.90
4548;DHT22;2286;51.570;7.090;2023-04-23T14:46:13;22.60;99.90
4548;DHT22;2286;51.570;7.090;2023-04-23T14:48:42;22.60;99.90
4548;DHT22;2286;51.570;7.090;2023-04-23T14:51:09;22.40;99.90
4548;DHT22;2286;51.570;7.090;2023-04-23T14:53:36;22.20;99.90
4548;DHT22;2286;51.570;7.090;2023-04-23T14:56:03;22.30;99.90
4548;DHT22;2286;51.570;7.090;2023-04-23T14:58:30;22.10;99.90
4548;DHT22;2286;51.570;7.090;2023-04-23T15:00:57;21.80;99.90
4548;DHT22;2286;51.570;7.090;2023-04-23T15:03:24;21.80;99.90
4548;DHT22;2286;51.570;7.090;2023-04-23T15:05:53;22.20;99.90
4548;DHT22;2286;51.570;7.090;2023-04-23T15:08:20;22.20;99.90
4548;DHT22;2286;51.570;7.090;2023-04-23T15:10:47;22.10;99.90
4548;DHT22;2286;51.570;7.090;2023-04-23T15:13:34;22.00;99.90
4548;DHT22;2286;51.570;7.090;2023-04-23T15:16:07;22.00;99.90
4548;DHT22;2286;51.570;7.090;2023-04-23T15:18:35;21.80;99.90
4548;DHT22;2286;51.570;7.090;2023-04-23T15:21:03;21.40;99.90
4548;DHT22;2286;51.570;7.090;2023-04-23T15:23:30;21.10;99.90
4548;DHT22;2286;51.570;7.090;2023-04-23T15:25:58;20.60;99.90
4548;DHT22;2286;51.570;7.090;2023-04-23T15:28:25;20.20;99.90
4548;DHT22;2286;51.570;7.090;2023-04-23T15:30:52;20.00;99.90
4548;DHT22;2286;51.570;7.090;2023-04-23T15:33:19;19.90;99.90
4548;DHT22;2286;51.570;7.090;2023-04-23T15:35:46;19.70;99.90
4548;DHT22;2286;51.570;7.090;2023-04-23T15:38:17;19.40;99.90
4548;DHT22;2286;51.570;7.090;2023-04-23T15:40:44;19.40;99.90
4548;DHT22;2286;51.570;7.090;2023-04-23T15:43:12;19.20;99.90
4548;DHT22;2286;51.570;7.090;2023-04-23T15:45:39;19.00;99.90
4548;DHT22;2286;51.570;7.090;2023-04-23T15:48:07;19.00;99.90
4548;DHT22;2286;51.570;7.090;2023-04-23T15:50:34;18.90;99.90
4548;DHT22;2286;51.570;7.090;2023-04-23T15:53:02;18.70;99.90
4548;DHT22;2286;51.570;7.090;2023-04-23T15:55:30;18.50;99.90
4548;DHT22;2286;51.570;7.090;2023-04-23T15:57:58;18.30;99.90
4548;DHT22;2286;51.570;7.090;2023-04-23T16:00:26;18.00;99.90
4548;DHT22;2286;51.570;7.090;2023-04-23T16:02:53;17.40;99.90
4548;DHT22;2286;51.570;7.090;2023-04-23T16:05:21;17.10;99.90
4548;DHT22;2286;51.570;7.090;2023-04-23T16:07:48;16.90;99.90
4548;DHT22;2286;51.570;7.090;2023-04-23T16:10:16;16.70;99.90
4548;DHT22;2286;51.570;7.090;2023-04-23T16:12:44;16.50;99.90
4548;DHT22;2286;51.570;7.090;2023-04-23T16:15:13;16.20;99.90